Time;durP1;ratioP1;P1;durP2;ratioP2;P2;SDS_P1;SDS_P2;PMS_P1;PMS_P2;Temp;Humidity;BMP_temperature;BMP_pressure;BME280_temperature;BME280_humidity;BME280_pressure;Samples;Min_cycle;Max_cycle;Signal;HPM_P1;HPM_P2
2021/04/05 00:02:29;;;;;;;25.65;17.70;;;;;;;1.94;87.19;99765.14;1772014;81;21280;-76
2021/04/05 00:05:39;;;;;;;24.27;17.48;;;;;;;1.90;87.40;99766.40;1772058;81;21786;-75
2021/04/05 00:08:44;;;;;;;29.77;18.20;;;;;;;1.86;87.58;99762.75;1772150;81;21152;-76
2021/04/05 00:11:50;;;;;;;26.20;17.27;;;;;;;1.85;88.16;99761.91;1772095;79;21306;-76
2021/04/05 00:14:55;;;;;;;26.90;17.12;;;;;;;1.91;88.57;99761.86;1771962;81;21798;-75
2021/04/05 00:18:00;;;;;;;27.27;18.80;;;;;;;1.92;88.74;99758.16;1772169;81;21270;-76
2021/04/05 00:21:16;;;;;;;26.35;19.15;;;;;;;1.98;89.05;99755.80;1772109;81;21810;-76
2021/04/05 00:24:21;;;;;;;23.50;18.12;;;;;;;2.06;89.34;99753.75;1772169;81;21259;-76
2021/04/05 00:27:28;;;;;;;24.52;17.57;;;;;;;2.14;89.50;99749.04;1770581;81;21145;-76
2021/04/05 00:30:41;;;;;;;26.93;17.10;;;;;;;2.15;89.55;99743.50;1772081;81;21263;-75
2021/04/05 00:33:48;;;;;;;25.65;16.90;;;;;;;2.15;89.37;99748.05;1773612;81;21764;-76
2021/04/05 00:36:52;;;;;;;23.12;15.18;;;;;;;2.05;88.68;99750.70;1777853;81;21820;-76
2021/04/05 00:39:52;;;;;;;25.35;17.00;;;;;;;1.94;88.29;99757.55;1778105;79;21251;-76
2021/04/05 00:42:59;;;;;;;25.12;19.57;;;;;;;1.78;88.00;99761.56;1777776;80;21711;-76
2021/04/05 00:46:06;;;;;;;24.23;18.27;;;;;;;1.64;88.24;99763.75;1777866;81;21675;-76
2021/04/05 00:49:12;;;;;;;23.67;18.02;;;;;;;1.60;88.51;99762.30;1777871;81;21258;-76
2021/04/05 00:52:16;;;;;;;29.70;19.67;;;;;;;1.54;88.73;99758.30;1777832;80;21155;-76
2021/04/05 00:55:21;;;;;;;25.48;17.12;;;;;;;1.56;89.02;99755.50;1777826;81;21140;-76
2021/04/05 00:58:28;;;;;;;28.95;19.90;;;;;;;1.59;89.30;99753.37;1777877;81;21302;-76
2021/04/05 01:01:34;;;;;;;25.62;18.37;;;;;;;1.60;89.44;99752.87;1777826;81;21816;-76
2021/04/05 01:04:41;;;;;;;25.43;18.85;;;;;;;1.54;89.60;99769.09;1777826;81;21723;-76
2021/04/05 01:07:48;;;;;;;27.65;21.23;;;;;;;1.48;89.60;99770.97;1777849;81;21795;-76
2021/04/05 01:10:54;;;;;;;30.23;22.27;;;;;;;1.45;89.81;99772.57;1792571;79;21157;-76
2021/04/05 01:13:59;;;;;;;30.45;21.90;;;;;;;1.47;90.00;99774.66;1809654;79;21180;-75
2021/04/05 01:17:05;;;;;;;26.97;20.08;;;;;;;1.43;89.78;99775.91;1808173;79;21728;-75
2021/04/05 01:20:17;;;;;;;24.95;19.40;;;;;;;1.45;89.74;99782.00;1809691;79;21126;-75
2021/04/05 01:23:23;;;;;;;25.80;19.65;;;;;;;1.48;89.61;99777.70;1809671;79;21731;-76
2021/04/05 01:26:33;;;;;;;30.43;21.75;;;;;;;1.50;89.51;99778.42;1809646;79;21311;-76
2021/04/05 01:29:38;;;;;;;32.30;23.55;;;;;;;1.50;89.34;99777.92;1809580;79;21742;-75
2021/04/05 01:32:44;;;;;;;29.87;20.02;;;;;;;1.51;89.13;99774.27;1809595;79;21248;-75
2021/04/05 01:35:59;;;;;;;26.50;20.05;;;;;;;1.49;88.87;99767.28;1802181;79;21288;-76
2021/04/05 01:39:05;;;;;;;20.90;16.95;;;;;;;1.49;88.70;99765.94;1803739;79;21251;-76
2021/04/05 01:42:12;;;;;;;23.15;17.98;;;;;;;1.46;88.44;99766.22;1772015;81;21224;-76
2021/04/05 01:45:18;;;;;;;26.40;18.25;;;;;;;1.39;88.18;99757.78;1771905;81;21865;-76
2021/04/05 01:48:27;;;;;;;28.40;19.87;;;;;;;1.33;88.03;99760.16;1772098;81;21311;-75
2021/04/05 01:51:33;;;;;;;39.65;25.50;;;;;;;1.28;88.01;99758.71;1756349;81;21283;-76
2021/04/05 01:54:40;;;;;;;39.70;27.40;;;;;;;1.24;88.11;99754.56;1772148;81;21137;-76
2021/04/05 01:57:46;;;;;;;39.95;26.23;;;;;;;1.22;88.15;99755.20;1772108;81;21775;-75
2021/04/05 02:00:51;;;;;;;37.25;26.23;;;;;;;1.15;88.00;99747.76;1735013;82;21728;-75
2021/04/05 02:03:56;;;;;;;41.60;27.77;;;;;;;1.10;88.08;99738.72;1772111;81;21177;-75
2021/04/05 02:07:02;;;;;;;44.42;29.72;;;;;;;1.08;88.19;99747.41;1772055;81;21157;-76
2021/04/05 02:10:07;;;;;;;40.60;27.45;;;;;;;1.03;88.18;99745.59;1729687;82;21797;-75
2021/04/05 02:13:14;;;;;;;31.52;21.60;;;;;;;0.98;88.25;99748.67;1770545;81;21196;-76
2021/04/05 02:16:23;;;;;;;32.88;23.40;;;;;;;0.97;88.53;99743.42;1772002;81;21312;-76
2021/04/05 02:19:27;;;;;;;;;;;;;;;0.91;88.31;99743.95;1774621;81;21184;-76
2021/04/05 02:22:32;;;;;;;28.47;20.12;;;;;;;0.80;88.17;99754.28;1772042;81;20179;-75
2021/04/05 02:26:05;;;;;;;27.05;21.00;;;;;;;0.67;88.10;99754.43;1767644;80;21245;-75
2021/04/05 02:28:55;;;;;;;32.28;22.73;;;;;;;0.55;88.03;99759.47;1745398;81;21693;-75
2021/04/05 02:32:01;;;;;;;25.82;20.20;;;;;;;0.46;88.28;99752.14;1760966;81;21281;-76
2021/04/05 02:35:08;;;;;;;32.25;23.60;;;;;;;0.44;88.54;99756.81;1761983;80;21776;-75
2021/04/05 02:38:14;;;;;;;32.80;23.73;;;;;;;0.44;88.85;99755.47;1780197;80;21810;-75
2021/04/05 02:41:19;;;;;;;35.35;24.43;;;;;;;0.47;89.16;99763.27;1780244;79;21255;-75
2021/04/05 02:44:26;;;;;;;34.78;22.98;;;;;;;0.53;89.42;99764.13;1780231;80;21290;-76
2021/04/05 02:47:31;;;;;;;36.25;24.35;;;;;;;0.56;89.50;99758.48;1780308;80;21326;-76
2021/04/05 02:50:38;;;;;;;37.00;26.70;;;;;;;0.59;89.61;99754.20;1757472;80;21718;-75
2021/04/05 02:53:47;;;;;;;30.27;23.35;;;;;;;0.61;89.59;99754.95;1780300;80;21708;-76
2021/04/05 02:56:52;;;;;;;28.83;22.42;;;;;;;0.61;89.41;99754.06;1780252;79;21322;-75
2021/04/05 03:00:00;;;;;;;24.52;20.10;;;;;;;0.58;89.34;99753.84;1780248;80;21691;-76
2021/04/05 03:03:05;;;;;;;29.02;21.12;;;;;;;0.62;89.45;99760.69;1757500;80;21882;-75
2021/04/05 03:06:11;;;;;;;26.37;21.00;;;;;;;0.61;89.48;99760.33;1780205;80;21305;-75
2021/04/05 03:09:16;;;;;;;27.98;21.23;;;;;;;0.62;89.56;99752.61;1780286;80;21261;-75
2021/04/05 03:12:22;;;;;;;23.35;20.10;;;;;;;0.63;89.70;99748.93;1780291;80;21214;-76
2021/04/05 03:15:28;;;;;;;21.68;16.97;;;;;;;0.64;89.77;99743.91;1782490;79;21689;-76
2021/04/05 03:18:34;;;;;;;33.65;24.27;;;;;;;0.66;89.88;99740.61;1779335;79;21133;-76
2021/04/05 03:21:39;;;;;;;35.95;26.77;;;;;;;0.69;89.99;99734.95;1774208;81;21213;-76
2021/04/05 03:24:47;;;;;;;35.38;24.80;;;;;;;0.73;90.08;99728.34;1801137;79;21783;-76
2021/04/05 03:27:51;;;;;;;29.87;21.23;;;;;;;0.72;90.02;99730.67;1812182;79;21807;-76
2021/04/05 03:30:59;;;;;;;22.50;18.75;;;;;;;0.74;90.05;99729.19;1801837;79;21839;-76
2021/04/05 03:34:16;;;;;;;24.32;18.42;;;;;;;0.77;89.99;99728.95;1780749;80;21280;-75
2021/04/05 03:37:24;;;;;;;26.33;21.73;;;;;;;0.81;89.93;99727.70;1776197;80;21914;-76
2021/04/05 03:40:29;;;;;;;29.18;21.60;;;;;;;0.82;89.69;99729.91;1779060;79;21219;-76
2021/04/05 03:43:51;;;;;;;24.32;19.27;;;;;;;0.83;89.63;99724.88;1777915;79;21794;-75
2021/04/05 03:46:56;;;;;;;22.17;17.92;;;;;;;0.86;89.53;99723.28;1784212;79;21267;-76
2021/04/05 03:50:12;;;;;;;23.50;19.23;;;;;;;0.88;89.39;99718.61;1778123;79;21180;-76
2021/04/05 03:53:27;;;;;;;22.82;18.40;;;;;;;0.92;89.36;99716.03;1803679;79;21258;-76
2021/04/05 03:56:35;;;;;;;22.07;17.55;;;;;;;1.02;89.44;99716.95;1809481;79;21252;-76
2021/04/05 03:59:45;;;;;;;21.90;17.45;;;;;;;1.14;89.48;99719.12;1808692;79;21143;-76
2021/04/05 04:02:52;;;;;;;22.80;18.00;;;;;;;1.24;89.46;99714.64;1805176;79;21287;-76
2021/04/05 04:06:00;;;;;;;34.80;22.67;;;;;;;1.35;89.30;99715.06;1773804;79;21141;-75
2021/04/05 04:09:05;;;;;;;25.10;19.37;;;;;;;1.41;88.89;99722.61;1738347;82;21213;-75
2021/04/05 04:12:14;;;;;;;24.10;18.48;;;;;;;1.42;88.21;99719.80;1751246;82;21585;-76
2021/04/05 04:15:19;;;;;;;23.57;17.40;;;;;;;1.51;87.98;99722.20;1750910;82;21844;-75
2021/04/05 04:18:25;;;;;;;21.60;16.42;;;;;;;1.52;87.36;99712.63;1708982;84;21164;-75
2021/04/05 04:21:31;;;;;;;22.13;17.32;;;;;;;1.59;86.90;99718.33;1727174;82;21752;-76
2021/04/05 04:24:36;;;;;;;16.67;14.25;;;;;;;1.67;86.59;99722.56;1744476;81;21153;-75
2021/04/05 04:27:42;;;;;;;18.10;14.75;;;;;;;1.68;86.05;99720.72;1708667;84;21330;-75
2021/04/05 04:30:48;;;;;;;18.70;15.45;;;;;;;1.68;85.81;99724.27;1708606;84;21174;-76
2021/04/05 04:33:55;;;;;;;18.40;15.40;;;;;;;1.77;85.80;99730.70;1740132;81;21134;-76
2021/04/05 04:37:00;;;;;;;18.67;14.98;;;;;;;1.84;85.61;99727.84;1707265;84;21193;-75
2021/04/05 04:40:05;;;;;;;19.30;14.90;;;;;;;1.89;85.53;99721.55;1713487;82;21264;-76
2021/04/05 04:43:12;;;;;;;19.57;15.60;;;;;;;2.05;85.72;99725.08;1724303;82;21694;-76
2021/04/05 04:46:17;;;;;;;23.50;13.20;;;;;;;2.21;85.61;99721.39;1740440;81;21798;-76
2021/04/05 04:49:23;;;;;;;14.65;12.85;;;;;;;2.34;85.54;99710.82;1738754;82;21279;-75
2021/04/05 04:52:22;;;;;;;20.77;15.88;;;;;;;2.46;85.55;99714.62;1748843;81;21950;-75
2021/04/05 04:55:30;;;;;;;19.40;16.30;;;;;;;2.58;85.59;99709.94;1728021;82;21828;-76
2021/04/05 04:58:36;;;;;;;20.88;17.05;;;;;;;2.72;85.53;99703.27;1735563;82;21276;-76
2021/04/05 05:01:45;;;;;;;23.25;17.02;;;;;;;2.85;85.58;99691.70;1741424;81;21331;-76
2021/04/05 05:04:49;;;;;;;21.77;16.48;;;;;;;3.00;85.62;99683.52;1730427;82;21913;-76
2021/04/05 05:07:54;;;;;;;16.93;13.13;;;;;;;3.14;85.72;99684.92;1726291;82;21275;-76
2021/04/05 05:10:59;;;;;;;16.32;14.33;;;;;;;3.31;86.07;99687.41;1718100;82;22672;-75
2021/04/05 05:14:06;;;;;;;20.35;15.03;;;;;;;3.45;86.26;99677.98;1746455;81;21612;-76
2021/04/05 05:17:13;;;;;;;18.05;12.07;;;;;;;3.62;86.42;99669.09;1729470;82;21969;-75
2021/04/05 05:20:22;;;;;;;15.35;12.88;;;;;;;3.82;86.35;99672.09;1715786;82;21323;-76
2021/04/05 05:23:27;;;;;;;13.90;11.45;;;;;;;4.01;86.12;99677.08;1730803;82;21153;-75
2021/04/05 05:26:32;;;;;;;18.62;14.10;;;;;;;4.13;85.61;99677.20;1733494;82;21319;-76
2021/04/05 05:29:38;;;;;;;17.82;13.93;;;;;;;4.26;85.43;99676.36;1752018;81;21157;-75
2021/04/05 05:32:44;;;;;;;19.10;14.50;;;;;;;4.49;85.12;99678.65;1751273;81;21169;-76
2021/04/05 05:35:51;;;;;;;18.87;14.50;;;;;;;4.69;84.67;99678.84;1748671;81;21181;-76
2021/04/05 05:38:57;;;;;;;21.68;15.83;;;;;;;4.92;84.34;99676.53;1733221;82;21268;-76
2021/04/05 05:42:23;;;;;;;21.50;15.72;;;;;;;5.04;83.60;99674.45;1784689;79;21899;-76
2021/04/05 05:45:32;;;;;;;22.02;17.32;;;;;;;5.09;83.24;99668.05;1785299;79;21200;-75
2021/04/05 05:49:25;;;;;;;23.62;18.00;;;;;;;5.26;83.09;99668.51;1783476;79;21188;-75
2021/04/05 05:53:06;;;;;;;34.50;19.98;;;;;;;5.46;82.66;99669.19;1781096;79;21209;-76
2021/04/05 05:56:52;;;;;;;26.50;16.95;;;;;;;5.68;82.01;99670.49;1753958;79;22516;-76
2021/04/05 06:00:23;;;;;;;24.82;18.67;;;;;;;5.82;81.13;99660.91;1782027;79;21220;-76
2021/04/05 06:03:50;;;;;;;33.50;19.55;;;;;;;5.85;80.71;99659.23;1784191;79;21205;-77
2021/04/05 06:07:08;;;;;;;25.82;19.07;;;;;;;5.92;80.72;99663.53;1764082;79;21196;-76
2021/04/05 06:10:28;;;;;;;26.52;18.07;;;;;;;5.89;80.50;99661.47;1785477;79;21149;-76
2021/04/05 06:13:53;;;;;;;28.05;17.87;;;;;;;5.83;80.88;99662.12;1783026;79;21339;-77
2021/04/05 06:17:19;;;;;;;25.82;18.57;;;;;;;5.80;81.23;99665.66;1784637;79;21839;-76
2021/04/05 06:20:46;;;;;;;32.83;21.15;;;;;;;5.86;82.05;99662.29;1737747;79;21271;-77
2021/04/05 06:24:01;;;;;;;28.70;20.95;;;;;;;5.97;82.01;99662.53;1784018;79;21313;-78
2021/04/05 06:27:21;;;;;;;25.43;19.40;;;;;;;6.04;81.93;99656.81;1781861;79;21170;-78
2021/04/05 06:30:42;;;;;;;34.88;23.77;;;;;;;6.19;82.26;99671.97;1780857;79;21773;-77
2021/04/05 06:33:53;;;;;;;33.35;23.15;;;;;;;6.34;81.93;99670.33;1785921;79;21327;-77
2021/04/05 06:37:26;;;;;;;38.63;24.25;;;;;;;6.52;81.78;99671.57;1781968;79;21271;-78
2021/04/05 06:40:33;;;;;;;42.48;29.92;;;;;;;6.72;81.52;99672.97;1783104;79;21825;-78
2021/04/05 06:43:48;;;;;;;33.70;24.15;;;;;;;6.93;80.88;99668.42;1786976;79;21823;-78
2021/04/05 06:47:48;;;;;;;37.13;26.70;;;;;;;7.03;80.04;99666.91;1779490;79;21289;-79
2021/04/05 06:51:32;;;;;;;43.45;27.13;;;;;;;6.91;79.58;99669.93;1785104;79;21494;-80
2021/04/05 06:54:58;;;;;;;35.73;23.83;;;;;;;6.85;79.93;99671.13;1786243;79;22225;-79
2021/04/05 06:58:28;;;;;;;44.53;31.97;;;;;;;6.83;79.63;99667.23;1784583;79;21181;-79
2021/04/05 07:01:47;;;;;;;41.02;28.10;;;;;;;6.74;79.48;99660.08;1776956;79;21398;-76
2021/04/05 07:05:17;;;;;;;47.67;29.35;;;;;;;6.77;79.87;99658.36;1779821;79;21311;-76
2021/04/05 07:08:58;;;;;;;46.60;32.48;;;;;;;6.77;79.98;99657.00;1785426;79;21310;-78
2021/04/05 07:12:42;;;;;;;47.78;28.05;;;;;;;6.70;79.86;99661.42;1759943;80;21317;-77
2021/04/05 07:16:39;;;;;;;42.40;26.60;;;;;;;6.60;80.12;99652.06;1775665;79;21290;-77
2021/04/05 07:20:27;;;;;;;46.00;30.15;;;;;;;6.63;80.72;99654.46;1786212;79;21169;-77
2021/04/05 07:24:14;;;;;;;59.75;39.48;;;;;;;6.65;80.62;99651.56;1787117;79;21263;-77
2021/04/05 07:27:25;;;;;;;55.45;36.48;;;;;;;6.62;81.08;99646.45;1788612;79;21244;-77
2021/04/05 07:30:48;;;;;;;77.90;46.90;;;;;;;6.73;81.16;99637.13;1784964;79;21273;-77
2021/04/05 07:33:54;;;;;;;72.58;47.43;;;;;;;6.79;81.04;99645.47;1783632;79;21863;-78
2021/04/05 07:37:04;;;;;;;82.85;51.80;;;;;;;6.79;80.72;99633.23;1783950;79;21346;-79
2021/04/05 07:40:27;;;;;;;70.50;44.83;;;;;;;6.86;80.64;99632.05;1788951;79;21347;-78
2021/04/05 07:44:13;;;;;;;96.60;57.50;;;;;;;6.93;80.31;99630.88;1793268;79;21260;-78
2021/04/05 07:47:39;;;;;;;80.42;51.40;;;;;;;6.95;79.72;99632.91;1797554;79;21881;-78
2021/04/05 07:50:56;;;;;;;90.30;58.75;;;;;;;7.07;79.24;99626.12;1794355;79;21314;-78
2021/04/05 07:54:12;;;;;;;87.17;56.92;;;;;;;7.09;78.48;99628.14;1799153;79;21271;-79
2021/04/05 07:57:41;;;;;;;79.45;50.28;;;;;;;7.07;78.62;99618.80;1798509;79;22268;-79
2021/04/05 08:01:11;;;;;;;79.70;50.70;;;;;;;7.12;78.91;99617.78;1797430;79;21326;-79
2021/04/05 08:04:32;;;;;;;70.35;46.90;;;;;;;7.19;78.94;99616.57;1797165;79;21255;-80
2021/04/05 08:08:03;;;;;;;68.15;43.02;;;;;;;7.16;77.90;99615.06;1801828;79;21268;-79
2021/04/05 08:11:36;;;;;;;63.73;41.65;;;;;;;7.21;77.76;99617.27;1796781;79;21624;-79
2021/04/05 08:15:34;;;;;;;69.12;44.18;;;;;;;7.23;77.71;99607.05;1794297;79;21247;-79
2021/04/05 08:18:48;;;;;;;57.33;40.00;;;;;;;7.37;78.46;99600.06;1796885;79;21490;-79
2021/04/05 08:22:16;;;;;;;65.12;42.33;;;;;;;7.64;78.22;99599.66;1796483;79;21290;-80
2021/04/05 08:26:00;;;;;;;59.18;40.03;;;;;;;7.86;77.15;99602.15;1802517;79;22204;-80
2021/04/05 08:29:43;;;;;;;50.20;34.53;;;;;;;8.08;75.19;99600.50;1804021;79;21256;-78
2021/04/05 08:33:22;;;;;;;55.03;37.42;;;;;;;8.18;74.83;99601.64;1789026;79;21235;-79
2021/04/05 08:36:55;;;;;;;37.00;26.55;;;;;;;8.44;75.16;99599.49;1779558;79;21169;-79
2021/04/05 08:40:18;;;;;;;36.33;25.55;;;;;;;8.80;73.60;99601.64;1796194;79;21842;-78
2021/04/05 08:43:49;;;;;;;48.17;31.95;;;;;;;8.91;70.95;99596.27;1787798;79;21342;-78
2021/04/05 08:46:55;;;;;;;55.95;34.33;;;;;;;8.89;70.65;99593.73;1786290;79;21311;-77
2021/04/05 08:50:04;;;;;;;51.53;33.08;;;;;;;9.11;70.74;99603.42;1789989;79;21335;-77
2021/04/05 08:53:03;;;;;;;48.17;32.55;;;;;;;9.41;70.89;99592.92;1778125;79;21363;-78
2021/04/05 08:56:13;;;;;;;49.55;34.18;;;;;;;9.54;69.26;99595.50;1787031;79;21328;-77
2021/04/05 08:59:28;;;;;;;47.62;30.90;;;;;;;9.41;68.15;99598.38;1782161;79;21326;-78
2021/04/05 09:02:57;;;;;;;54.40;32.85;;;;;;;9.27;68.93;99595.11;1785464;79;21378;-77
2021/04/05 09:06:03;;;;;;;42.67;27.00;;;;;;;9.27;69.07;99587.41;1784302;79;21319;-77
2021/04/05 09:09:12;;;;;;;54.65;33.05;;;;;;;9.49;69.23;99583.77;1780871;78;21193;-78
2021/04/05 09:12:19;;;;;;;46.63;29.23;;;;;;;9.63;68.89;99584.30;1785095;79;21558;-77
2021/04/05 09:15:38;;;;;;;66.35;38.10;;;;;;;9.85;68.76;99584.41;1782598;79;21319;-77
2021/04/05 09:19:19;;;;;;;45.95;26.00;;;;;;;10.07;67.96;99579.84;1778778;79;21205;-77
2021/04/05 09:23:02;;;;;;;40.08;22.70;;;;;;;10.23;67.07;99570.92;1783018;79;21871;-77
2021/04/05 09:26:49;;;;;;;53.63;29.15;;;;;;;10.23;64.46;99570.08;1783367;79;21743;-77
2021/04/05 09:30:13;;;;;;;64.32;34.05;;;;;;;10.19;64.20;99561.41;1781348;79;21314;-77
2021/04/05 09:33:57;;;;;;;60.08;33.33;;;;;;;10.28;64.13;99556.70;1780816;79;21193;-77
2021/04/05 09:37:29;;;;;;;70.45;35.52;;;;;;;10.38;64.45;99547.67;1784677;79;21780;-77
2021/04/05 09:40:52;;;;;;;68.30;35.58;;;;;;;10.56;64.98;99547.23;1760680;80;21303;-77
2021/04/05 09:44:35;;;;;;;102.72;49.85;;;;;;;10.77;64.97;99542.27;1770629;79;22323;-78
2021/04/05 09:48:13;;;;;;;82.47;41.85;;;;;;;11.06;65.06;99544.02;1785526;79;21330;-78
2021/04/05 09:51:23;;;;;;;100.55;49.25;;;;;;;11.26;63.61;99537.33;1785174;79;21840;-78
2021/04/05 09:54:35;;;;;;;96.60;48.48;;;;;;;11.22;63.28;99534.66;1784541;79;21335;-78
2021/04/05 09:58:08;;;;;;;83.20;46.25;;;;;;;11.34;63.22;99528.09;1780690;79;21850;-78
2021/04/05 10:01:19;;;;;;;71.67;38.28;;;;;;;11.44;62.54;99521.77;1772846;79;22446;-77
2021/04/05 10:04:28;;;;;;;59.18;31.80;;;;;;;11.56;61.50;99516.55;1787764;79;21189;-77
2021/04/05 10:07:34;;;;;;;60.80;30.77;;;;;;;11.55;60.53;99512.13;1789963;79;21326;-78
2021/04/05 10:10:39;;;;;;;53.05;30.50;;;;;;;11.52;59.79;99514.20;1783349;79;22596;-78
2021/04/05 10:13:59;;;;;;;67.97;35.20;;;;;;;11.51;59.88;99519.36;1747185;79;21909;-77
2021/04/05 10:17:05;;;;;;;68.42;36.80;;;;;;;11.49;59.39;99506.41;1779812;79;21866;-77
2021/04/05 10:20:14;;;;;;;72.70;37.23;;;;;;;11.35;59.42;99506.02;1748981;81;21874;-77
2021/04/05 10:23:19;;;;;;;61.28;32.17;;;;;;;11.09;58.02;99506.66;1781996;79;21908;-77
2021/04/05 10:26:24;;;;;;;65.62;33.53;;;;;;;10.75;58.11;99497.87;1790398;79;21252;-77
2021/04/05 10:29:33;;;;;;;61.05;32.35;;;;;;;10.41;59.08;99491.25;1782646;79;21271;-77
2021/04/05 10:32:40;;;;;;;62.98;33.23;;;;;;;10.15;59.22;99501.86;1790212;79;21280;-77
2021/04/05 10:35:47;;;;;;;63.68;32.53;;;;;;;9.74;60.03;99487.42;1786974;79;21891;-78
2021/04/05 10:38:54;;;;;;;51.15;28.35;;;;;;;9.51;61.68;99488.06;1764876;79;21271;-78
2021/04/05 10:42:06;;;;;;;55.35;29.12;;;;;;;9.29;61.50;99489.32;1787901;79;21248;-78
2021/04/05 10:45:16;;;;;;;48.25;25.77;;;;;;;9.12;62.10;99487.80;1701517;83;21274;-78
2021/04/05 10:48:45;;;;;;;41.42;24.75;;;;;;;9.07;61.97;99483.42;1793531;79;21283;-78
2021/04/05 10:52:19;;;;;;;51.95;26.82;;;;;;;9.04;62.66;99481.93;1781723;79;21209;-79
2021/04/05 10:55:32;;;;;;;41.63;24.70;;;;;;;9.04;62.59;99473.75;1790434;79;21280;-78
2021/04/05 10:58:55;;;;;;;54.25;28.23;;;;;;;9.05;62.25;99472.70;1790536;79;21844;-78
2021/04/05 11:02:15;;;;;;;48.92;26.77;;;;;;;9.03;62.55;99475.27;1787288;79;21228;-78
2021/04/05 11:05:25;;;;;;;37.55;22.95;;;;;;;9.06;62.53;99478.48;1784760;79;21559;-77
2021/04/05 11:08:37;;;;;;;29.45;17.20;;;;;;;9.06;62.41;99473.03;1784710;79;21228;-78
2021/04/05 11:11:44;;;;;;;33.08;18.85;;;;;;;9.08;61.34;99471.47;1783955;79;21807;-78
2021/04/05 11:14:49;;;;;;;27.87;15.68;;;;;;;9.11;62.16;99465.13;1789591;79;21192;-78
2021/04/05 11:17:57;;;;;;;27.82;15.60;;;;;;;9.18;62.75;99464.73;1786714;79;21331;-78
2021/04/05 11:21:03;;;;;;;22.52;14.25;;;;;;;9.21;62.86;99452.57;1785060;79;21850;-78
2021/04/05 11:24:09;;;;;;;21.10;12.88;;;;;;;9.28;62.75;99454.05;1790924;79;21302;-78
2021/04/05 11:27:17;;;;;;;22.30;13.60;;;;;;;9.33;62.89;99455.16;1786286;79;21268;-78
2021/04/05 11:30:23;;;;;;;20.70;12.80;;;;;;;9.31;62.49;99449.55;1789421;79;21263;-79
2021/04/05 11:33:36;;;;;;;19.62;11.25;;;;;;;9.31;62.14;99442.20;1784100;79;21319;-79
2021/04/05 11:36:54;;;;;;;24.95;14.18;;;;;;;9.29;60.49;99448.39;1785066;79;22235;-79
2021/04/05 11:40:11;;;;;;;21.65;11.60;;;;;;;9.31;60.46;99440.00;1785119;79;21200;-78
2021/04/05 11:43:25;;;;;;;18.65;10.80;;;;;;;9.31;60.13;99442.20;1787341;79;21252;-78
2021/04/05 11:46:36;;;;;;;13.25;8.60;;;;;;;9.18;59.00;99438.80;1787854;79;21323;-79
2021/04/05 11:49:42;;;;;;;9.05;6.72;;;;;;;8.94;59.33;99434.47;1774765;79;21354;-79
2021/04/05 11:52:54;;;;;;;13.93;8.63;;;;;;;8.76;57.85;99435.34;1794653;79;21271;-78
2021/04/05 11:56:10;;;;;;;13.38;8.15;;;;;;;8.71;60.38;99436.42;1789851;79;21613;-79
2021/04/05 11:59:27;;;;;;;16.77;9.73;;;;;;;8.74;59.96;99433.30;1795046;79;21291;-79
2021/04/05 12:02:41;;;;;;;22.93;12.60;;;;;;;8.82;59.58;99430.50;1793532;79;21161;-79
2021/04/05 12:05:54;;;;;;;21.97;13.68;;;;;;;9.01;59.60;99430.47;1794709;79;21312;-79
2021/04/05 12:09:12;;;;;;;30.48;17.07;;;;;;;9.24;59.36;99430.37;1790036;79;21814;-79
2021/04/05 12:12:27;;;;;;;28.55;17.17;;;;;;;9.44;59.42;99430.63;1791734;79;21306;-79
2021/04/05 12:15:33;;;;;;;34.15;19.37;;;;;;;9.56;60.22;99418.72;1788515;79;21298;-76
2021/04/05 12:18:38;;;;;;;33.18;19.17;;;;;;;9.66;60.11;99415.16;1787135;79;21611;-77
2021/04/05 12:21:44;;;;;;;32.98;18.92;;;;;;;9.76;60.55;99412.13;1785047;79;21302;-76
2021/04/05 12:24:54;;;;;;;27.02;15.00;;;;;;;9.89;60.15;99411.75;1798056;79;21593;-76
2021/04/05 12:28:01;;;;;;;25.17;15.13;;;;;;;10.01;59.15;99414.80;1785092;79;21315;-76
2021/04/05 12:31:05;;;;;;;26.50;17.87;;;;;;;9.88;60.29;99413.28;1743417;79;22308;-79
2021/04/05 12:34:23;;;;;;;28.92;17.90;;;;;;;9.62;60.94;99413.84;1794533;79;21851;-79
2021/04/05 12:37:29;;;;;;;21.57;15.30;;;;;;;9.34;60.79;99410.45;1790330;79;21311;-78
2021/04/05 12:40:41;;;;;;;19.95;14.50;;;;;;;9.04;65.30;99415.63;1787867;79;21283;-77
2021/04/05 12:43:47;;;;;;;24.40;16.02;;;;;;;8.77;66.99;99416.58;1792256;79;21327;-77
2021/04/05 12:46:58;;;;;;;25.57;17.15;;;;;;;8.52;67.53;99415.14;1784693;79;21295;-77
2021/04/05 12:50:04;;;;;;;33.55;18.40;;;;;;;8.28;68.56;99414.30;1797328;79;21843;-77
2021/04/05 12:53:13;;;;;;;37.28;18.40;;;;;;;8.10;68.48;99415.97;1791875;79;21831;-77
2021/04/05 12:56:27;;;;;;;25.20;15.70;;;;;;;8.04;69.96;99415.31;1790645;79;21314;-77
2021/04/05 12:59:36;;;;;;;25.95;16.77;;;;;;;8.03;71.08;99413.63;1789281;79;21719;-76
2021/04/05 13:02:42;;;;;;;22.13;16.07;;;;;;;8.02;70.40;99417.39;1792951;79;21248;-77
2021/04/05 13:06:03;;;;;;;27.20;17.17;;;;;;;7.97;70.91;99410.80;1790497;79;21621;-78
2021/04/05 13:09:28;;;;;;;24.30;15.78;;;;;;;7.92;71.50;99409.46;1793734;79;21873;-78
2021/04/05 13:12:49;;;;;;;23.67;16.93;;;;;;;7.89;71.53;99408.45;1789334;79;21275;-78
2021/04/05 13:15:59;;;;;;;25.10;17.20;;;;;;;7.86;72.15;99407.98;1794799;79;21299;-78
2021/04/05 13:19:12;;;;;;;25.55;18.20;;;;;;;7.82;72.06;99404.77;1792581;79;21279;-78
2021/04/05 13:22:26;;;;;;;17.75;12.30;;;;;;;7.80;72.21;99415.49;1792340;79;21248;-78
2021/04/05 13:25:39;;;;;;;23.07;15.08;;;;;;;7.79;72.67;99414.65;1794208;79;21208;-78
2021/04/05 13:28:43;;;;;;;19.32;11.97;;;;;;;7.77;72.63;99422.68;1779428;79;21287;-78
2021/04/05 13:31:49;;;;;;;20.88;13.93;;;;;;;7.77;72.49;99427.61;1788941;79;21133;-78
2021/04/05 13:34:55;;;;;;;22.10;14.35;;;;;;;7.72;72.67;99424.58;1794058;79;21203;-78
2021/04/05 13:38:06;;;;;;;23.42;15.05;;;;;;;7.67;72.55;99440.09;1791047;79;21141;-78
2021/04/05 13:41:15;;;;;;;28.12;17.07;;;;;;;7.54;72.65;99437.61;1795312;79;21315;-78
2021/04/05 13:44:24;;;;;;;20.20;13.48;;;;;;;7.37;73.02;99449.91;1800584;79;21228;-79
2021/04/05 13:47:53;;;;;;;21.48;13.93;;;;;;;7.20;73.89;99456.46;1785396;79;21184;-79
2021/04/05 13:50:59;;;;;;;28.87;15.58;;;;;;;6.95;74.42;99457.53;1777194;79;21272;-78
2021/04/05 13:54:07;;;;;;;18.92;12.03;;;;;;;6.69;75.12;99455.06;1802665;79;21150;-79
2021/04/05 13:57:18;;;;;;;12.00;7.83;;;;;;;6.59;75.80;99456.60;1770403;81;21286;-78
2021/04/05 14:00:33;;;;;;;22.37;15.50;;;;;;;6.50;75.90;99437.25;1770265;81;21272;-78
2021/04/05 14:03:41;;;;;;;31.42;19.65;;;;;;;6.29;75.81;99436.39;1768819;81;21172;-78
2021/04/05 14:06:50;;;;;;;27.65;19.50;;;;;;;6.19;76.56;99445.22;1770822;81;21803;-78
2021/04/05 14:09:59;;;;;;;24.37;17.70;;;;;;;6.15;77.54;99451.50;1771302;81;21192;-78
2021/04/05 14:13:07;;;;;;;27.37;19.57;;;;;;;6.11;77.68;99444.70;1772166;81;21652;-78
2021/04/05 14:16:26;;;;;;;29.80;18.55;;;;;;;6.12;78.45;99454.57;1771919;81;21619;-78
2021/04/05 14:19:43;;;;;;;25.68;17.62;;;;;;;6.21;79.36;99458.98;1772148;81;21278;-80
2021/04/05 14:23:00;;;;;;;22.80;14.87;;;;;;;6.30;79.90;99459.30;1772256;81;21270;-78
2021/04/05 14:26:16;;;;;;;20.72;14.00;;;;;;;6.38;80.34;99460.66;1772120;81;21291;-78
2021/04/05 14:29:25;;;;;;;19.65;13.90;;;;;;;6.40;80.64;99455.09;1771128;81;21188;-77
2021/04/05 14:32:42;;;;;;;23.75;16.40;;;;;;;6.43;80.72;99456.59;1753325;81;21756;-76
2021/04/05 14:35:51;;;;;;;21.00;14.40;;;;;;;6.42;81.11;99452.19;1772083;81;21260;-77
2021/04/05 14:39:15;;;;;;;23.00;14.65;;;;;;;6.37;81.55;99454.91;1772054;81;21323;-77
2021/04/05 14:42:36;;;;;;;18.12;13.10;;;;;;;6.30;81.82;99460.66;1772044;81;21188;-77
2021/04/05 14:45:42;;;;;;;17.48;12.88;;;;;;;6.24;81.83;99465.42;1782623;79;21693;-77
2021/04/05 14:48:47;;;;;;;16.70;13.13;;;;;;;6.23;81.74;99462.38;1789382;79;21875;-77
2021/04/05 14:51:58;;;;;;;12.63;9.80;;;;;;;6.20;81.12;99470.84;1771236;81;21260;-77
2021/04/05 14:55:03;;;;;;;15.65;11.65;;;;;;;6.18;81.01;99462.55;1771067;81;21260;-77
2021/04/05 14:58:09;;;;;;;21.80;13.60;;;;;;;6.13;80.75;99459.82;1771040;81;21307;-77
2021/04/05 15:01:23;;;;;;;19.80;13.75;;;;;;;6.12;80.92;99457.28;1771271;81;21252;-77